Time;durP1;ratioP1;P1;durP2;ratioP2;P2;SDS_P1;SDS_P2;PMS_P1;PMS_P2;Temp;Humidity;BMP_temperature;BMP_pressure;BME280_temperature;BME280_humidity;BME280_pressure;Samples;Min_cycle;Max_cycle;Signal;HPM_P1;HPM_P2
2023/12/13 00:02:15;;;;;;;0.30;0.20;;;;;;;8.37;100.00;98644.22;5034426;28;20479;-53
2023/12/13 00:04:41;;;;;;;0.30;0.20;;;;;;;8.30;100.00;98635.66;5035106;28;20502;-53
2023/12/13 00:07:08;;;;;;;0.30;0.20;;;;;;;8.26;100.00;98639.38;5034852;28;20936;-53
2023/12/13 00:09:34;;;;;;;0.30;0.20;;;;;;;8.01;100.00;98631.69;5025359;28;21010;-53
2023/12/13 00:12:01;;;;;;;0.30;0.20;;;;;;;8.06;100.00;98631.47;5016448;28;20532;-53
2023/12/13 00:14:27;;;;;;;0.30;0.20;;;;;;;7.84;100.00;98631.59;5015147;28;20455;-53
2023/12/13 00:16:53;;;;;;;1.07;1.07;;;;;;;7.65;100.00;98628.88;5031296;28;20443;-53
2023/12/13 00:19:20;;;;;;;5.23;4.83;;;;;;;7.53;100.00;98628.53;5035026;28;20535;-52
2023/12/13 00:21:48;;;;;;;0.30;0.20;;;;;;;7.28;100.00;98631.41;5030338;28;21035;-53
2023/12/13 00:24:14;;;;;;;0.30;0.20;;;;;;;7.13;100.00;98633.75;5034756;28;20491;-53
2023/12/13 00:26:41;;;;;;;0.30;0.20;;;;;;;7.16;100.00;98629.25;5034402;28;20530;-53
2023/12/13 00:29:08;;;;;;;0.30;0.20;;;;;;;7.01;100.00;98626.31;5025406;28;20486;-52
2023/12/13 00:31:38;;;;;;;0.30;0.20;;;;;;;7.00;100.00;98618.47;5034415;28;20464;-53
2023/12/13 00:34:05;;;;;;;0.30;0.20;;;;;;;7.04;100.00;98612.13;5034190;28;20948;-53
2023/12/13 00:36:31;;;;;;;0.30;0.20;;;;;;;6.93;100.00;98609.91;5020972;28;20852;-52
2023/12/13 00:38:58;;;;;;;0.30;0.20;;;;;;;6.99;100.00;98611.44;5034199;28;20517;-53
2023/12/13 00:41:24;;;;;;;0.30;0.20;;;;;;;6.92;100.00;98607.34;5029304;28;20495;-53
2023/12/13 00:43:51;;;;;;;0.30;0.20;;;;;;;6.72;100.00;98608.16;5014446;28;20493;-53
2023/12/13 00:46:20;;;;;;;0.30;0.20;;;;;;;6.84;100.00;98605.84;5032365;28;20546;-53
2023/12/13 00:48:49;;;;;;;0.30;0.20;;;;;;;6.63;100.00;98606.75;5022462;28;20453;-52
2023/12/13 00:51:20;;;;;;;0.30;0.20;;;;;;;6.39;100.00;98608.56;5033466;28;20571;-52
2023/12/13 00:53:47;;;;;;;0.30;0.20;;;;;;;6.43;100.00;98604.88;5033899;28;20886;-51
2023/12/13 00:56:14;;;;;;;0.30;0.20;;;;;;;6.33;100.00;98602.66;5014328;28;20539;-53
2023/12/13 00:58:42;;;;;;;0.30;0.20;;;;;;;6.36;100.00;98605.19;5024179;28;20490;-52
2023/12/13 01:01:09;;;;;;;0.30;0.20;;;;;;;6.07;100.00;98614.22;5034193;28;20511;-52
2023/12/13 01:03:35;;;;;;;0.30;0.20;;;;;;;6.24;100.00;98612.66;5019473;28;20492;-52
2023/12/13 01:06:06;;;;;;;0.30;0.20;;;;;;;6.50;100.00;98614.28;5034005;28;20448;-52
2023/12/13 01:08:33;;;;;;;0.30;0.20;;;;;;;6.36;100.00;98621.88;5021023;28;20503;-52
2023/12/13 01:10:59;;;;;;;0.30;0.20;;;;;;;6.67;100.00;98618.88;5033373;28;20476;-53
2023/12/13 01:13:27;;;;;;;0.30;0.20;;;;;;;6.41;100.00;98624.31;5033855;28;20466;-53
2023/12/13 01:15:54;;;;;;;0.30;0.20;;;;;;;6.38;100.00;98622.66;5033905;28;20913;-53
2023/12/13 01:18:20;;;;;;;0.30;0.20;;;;;;;6.15;100.00;98626.19;5020076;28;20936;-53
2023/12/13 01:20:47;;;;;;;0.30;0.20;;;;;;;6.17;100.00;98626.16;5022500;28;20467;-53
2023/12/13 01:23:13;;;;;;;0.30;0.20;;;;;;;5.98;100.00;98628.59;5033575;28;20447;-52
2023/12/13 01:25:40;;;;;;;0.30;0.20;;;;;;;5.96;100.00;98638.34;5033260;28;20967;-52
2023/12/13 01:28:07;;;;;;;0.30;0.20;;;;;;;5.86;100.00;98647.44;5033341;28;20941;-53
2023/12/13 01:30:34;;;;;;;0.30;0.20;;;;;;;5.65;100.00;98638.56;5033237;28;20571;-53
2023/12/13 01:33:00;;;;;;;0.30;0.20;;;;;;;5.65;100.00;98636.78;5018060;28;20464;-52
2023/12/13 01:35:27;;;;;;;0.30;0.20;;;;;;;5.64;100.00;98644.75;5022195;28;20483;-52
2023/12/13 01:37:53;;;;;;;0.30;0.20;;;;;;;5.74;100.00;98647.88;5031927;28;20535;-53
2023/12/13 01:40:20;;;;;;;0.30;0.20;;;;;;;5.70;100.00;98655.06;5033180;28;21018;-53
2023/12/13 01:42:47;;;;;;;0.30;0.20;;;;;;;5.93;100.00;98654.28;5033179;28;20452;-52
2023/12/13 01:45:13;;;;;;;0.30;0.20;;;;;;;5.81;100.00;98647.63;5033182;28;20903;-53
2023/12/13 01:47:40;;;;;;;0.30;0.20;;;;;;;5.42;100.00;98644.63;5033145;28;20543;-53
2023/12/13 01:50:07;;;;;;;0.30;0.13;;;;;;;5.56;100.00;98642.38;5029834;28;20453;-53
2023/12/13 01:52:36;;;;;;;0.30;0.20;;;;;;;5.51;100.00;98648.72;5029491;28;20487;-52
2023/12/13 01:55:04;;;;;;;0.30;0.20;;;;;;;5.54;100.00;98643.34;5032606;28;20447;-52
2023/12/13 01:57:31;;;;;;;0.30;0.20;;;;;;;5.31;100.00;98641.47;5019697;28;20487;-52
2023/12/13 01:59:57;;;;;;;0.30;0.20;;;;;;;5.28;100.00;98641.59;5024113;28;20452;-52
2023/12/13 02:02:24;;;;;;;0.30;0.20;;;;;;;5.36;100.00;98636.94;5032778;28;20495;-53
2023/12/13 02:04:53;;;;;;;0.30;0.20;;;;;;;5.38;100.00;98650.91;5037644;28;21002;-52
2023/12/13 02:07:20;;;;;;;0.30;0.20;;;;;;;5.20;100.00;98647.09;5029624;28;20487;-52
2023/12/13 02:09:46;;;;;;;0.30;0.20;;;;;;;5.11;100.00;98649.19;5024016;28;20959;-53
2023/12/13 02:12:13;;;;;;;0.30;0.10;;;;;;;4.93;100.00;98643.59;5022997;28;20472;-53
2023/12/13 02:14:40;;;;;;;0.30;0.20;;;;;;;5.04;100.00;98643.25;5023973;28;20671;-53
2023/12/13 02:17:06;;;;;;;0.30;0.13;;;;;;;4.98;100.00;98639.06;5028101;28;20491;-52
2023/12/13 02:19:36;;;;;;;0.30;0.20;;;;;;;5.06;100.00;98644.06;5023875;28;20448;-52
2023/12/13 02:22:06;;;;;;;0.30;0.20;;;;;;;5.02;100.00;98639.81;5026888;28;20476;-52
2023/12/13 02:24:33;;;;;;;0.30;0.20;;;;;;;5.04;100.00;98633.59;5024557;28;21030;-52
2023/12/13 02:27:00;;;;;;;0.30;0.17;;;;;;;5.17;100.00;98641.09;5032384;28;20478;-53
2023/12/13 02:29:27;;;;;;;0.30;0.20;;;;;;;5.12;100.00;98633.34;5032416;28;20454;-52
2023/12/13 02:31:53;;;;;;;0.30;0.20;;;;;;;5.21;100.00;98640.94;5025832;28;20562;-52
2023/12/13 02:34:20;;;;;;;0.30;0.20;;;;;;;5.20;100.00;98631.31;5012596;28;20941;-52
2023/12/13 02:36:48;;;;;;;0.30;0.20;;;;;;;5.25;100.00;98629.38;5031581;28;20452;-52
2023/12/13 02:39:15;;;;;;;0.30;0.20;;;;;;;5.17;100.00;98623.50;5018700;28;20456;-52
2023/12/13 02:41:42;;;;;;;0.30;0.20;;;;;;;5.39;100.00;98620.16;5031835;28;20499;-52
2023/12/13 02:44:08;;;;;;;0.30;0.20;;;;;;;5.40;100.00;98613.97;5031653;28;20579;-53
2023/12/13 02:46:35;;;;;;;0.30;0.20;;;;;;;5.41;100.00;98606.00;5032004;28;20486;-52
2023/12/13 02:49:01;;;;;;;0.30;0.20;;;;;;;5.46;100.00;98613.75;5031923;28;20951;-53
2023/12/13 02:51:28;;;;;;;0.30;0.20;;;;;;;5.51;100.00;98617.09;5047218;28;20480;-52
2023/12/13 02:53:54;;;;;;;0.30;0.20;;;;;;;5.60;100.00;98607.06;5031945;28;20538;-52
2023/12/13 02:56:25;;;;;;;0.30;0.20;;;;;;;5.73;100.00;98612.75;5032003;28;20543;-53
2023/12/13 02:58:52;;;;;;;0.30;0.20;;;;;;;5.77;100.00;98610.91;5029733;28;20451;-52
2023/12/13 03:01:18;;;;;;;0.30;0.20;;;;;;;5.91;100.00;98600.75;5031773;28;20518;-53
2023/12/13 03:03:45;;;;;;;0.30;0.10;;;;;;;6.06;100.00;98608.06;5031188;28;20513;-53
2023/12/13 03:06:11;;;;;;;0.30;0.17;;;;;;;6.20;100.00;98607.56;5042360;28;20487;-53
2023/12/13 03:08:37;;;;;;;0.30;0.20;;;;;;;6.21;100.00;98599.56;5018370;28;20966;-52
2023/12/13 03:11:04;;;;;;;0.30;0.20;;;;;;;6.34;100.00;98602.59;5031775;28;20472;-52
2023/12/13 03:13:30;;;;;;;0.30;0.20;;;;;;;6.26;100.00;98602.03;5031877;28;20454;-53
2023/12/13 03:15:57;;;;;;;0.30;0.10;;;;;;;6.21;100.00;98594.31;5031525;28;20831;-53
2023/12/13 03:18:23;;;;;;;0.30;0.20;;;;;;;6.12;100.00;98589.38;5031659;28;20459;-53
2023/12/13 03:20:50;;;;;;;0.30;0.20;;;;;;;6.15;100.00;98591.88;5031729;28;20467;-52
2023/12/13 03:23:16;;;;;;;0.30;0.10;;;;;;;6.17;100.00;98598.00;5024560;28;20459;-52
2023/12/13 03:25:43;;;;;;;0.30;0.20;;;;;;;6.19;100.00;98593.50;5031597;28;20854;-52
2023/12/13 03:28:09;;;;;;;0.30;0.20;;;;;;;6.26;100.00;98580.94;5035338;28;20463;-52
2023/12/13 03:30:36;;;;;;;0.30;0.20;;;;;;;6.21;100.00;98580.25;5026778;28;20467;-53
2023/12/13 03:33:02;;;;;;;0.30;0.20;;;;;;;6.14;100.00;98582.25;5038224;28;20497;-53
2023/12/13 03:35:30;;;;;;;0.30;0.10;;;;;;;6.19;100.00;98575.03;5038283;28;20443;-52
2023/12/13 03:37:56;;;;;;;0.30;0.20;;;;;;;6.21;100.00;98573.19;5038042;28;20451;-53
2023/12/13 03:40:23;;;;;;;0.30;0.20;;;;;;;6.11;100.00;98579.75;5037619;28;20829;-52
2023/12/13 03:42:49;;;;;;;0.30;0.20;;;;;;;5.93;100.00;98577.81;5037962;28;20837;-53
2023/12/13 03:45:16;;;;;;;0.30;0.20;;;;;;;6.06;100.00;98571.16;5037886;28;20579;-53
2023/12/13 03:47:42;;;;;;;0.30;0.20;;;;;;;5.94;100.00;98561.06;5024831;28;20459;-52
2023/12/13 03:50:09;;;;;;;0.30;0.20;;;;;;;5.91;100.00;98569.09;5038122;28;20838;-54
2023/12/13 03:52:36;;;;;;;0.40;0.30;;;;;;;6.03;100.00;98571.28;5038087;28;20483;-52
2023/12/13 03:55:03;;;;;;;0.30;0.20;;;;;;;5.95;100.00;98568.06;5028627;28;20458;-52
2023/12/13 03:57:29;;;;;;;0.30;0.20;;;;;;;6.05;100.00;98563.31;5031302;28;20465;-52
2023/12/13 03:59:56;;;;;;;0.30;0.20;;;;;;;5.82;100.00;98559.72;5027844;28;20465;-52
2023/12/13 04:02:22;;;;;;;0.30;0.17;;;;;;;5.92;100.00;98560.28;5037701;28;20566;-52
2023/12/13 04:04:49;;;;;;;0.30;0.20;;;;;;;5.92;100.00;98566.41;5037891;28;20578;-53
2023/12/13 04:07:16;;;;;;;0.30;0.20;;;;;;;5.90;100.00;98567.38;5033835;28;20968;-52
2023/12/13 04:09:42;;;;;;;0.30;0.20;;;;;;;5.81;100.00;98562.41;5028929;28;20538;-52
2023/12/13 04:12:09;;;;;;;0.30;0.10;;;;;;;5.72;100.00;98562.75;5037758;28;20521;-53
2023/12/13 04:14:35;;;;;;;0.30;0.20;;;;;;;5.67;100.00;98568.19;5037756;28;20448;-52
2023/12/13 04:17:01;;;;;;;0.30;0.20;;;;;;;5.75;100.00;98568.75;5037278;28;20455;-52
2023/12/13 04:19:28;;;;;;;0.30;0.20;;;;;;;5.78;100.00;98570.44;5027207;28;20456;-52
2023/12/13 04:21:55;;;;;;;0.30;0.20;;;;;;;5.75;100.00;98571.38;5035241;28;21002;-52
2023/12/13 04:24:21;;;;;;;0.30;0.20;;;;;;;6.07;100.00;98578.16;5037976;28;20579;-52
2023/12/13 04:26:48;;;;;;;0.30;0.20;;;;;;;6.03;100.00;98562.47;5037500;28;20530;-52
2023/12/13 04:29:14;;;;;;;0.30;0.20;;;;;;;6.17;100.00;98560.19;5026660;28;20462;-52
2023/12/13 04:31:42;;;;;;;0.30;0.20;;;;;;;6.22;100.00;98561.72;5035459;28;20503;-52
2023/12/13 04:34:08;;;;;;;0.30;0.20;;;;;;;6.17;100.00;98550.50;5018285;28;20452;-52
2023/12/13 04:36:35;;;;;;;0.30;0.20;;;;;;;6.11;100.00;98552.50;5022409;28;20956;-52
2023/12/13 04:39:03;;;;;;;0.30;0.20;;;;;;;6.15;100.00;98547.03;5035107;28;20451;-52
2023/12/13 04:41:29;;;;;;;0.30;0.20;;;;;;;5.99;100.00;98543.28;5034051;28;20569;-52
2023/12/13 04:43:56;;;;;;;0.30;0.20;;;;;;;5.96;100.00;98537.28;5037679;28;20543;-52
2023/12/13 04:46:22;;;;;;;0.30;0.20;;;;;;;5.92;100.00;98531.25;5032813;28;20495;-52
2023/12/13 04:48:49;;;;;;;0.30;0.20;;;;;;;5.94;100.00;98537.34;5034423;28;20502;-52
2023/12/13 04:51:15;;;;;;;0.30;0.20;;;;;;;5.95;100.00;98541.69;5033848;28;20910;-52
2023/12/13 04:53:42;;;;;;;0.30;0.20;;;;;;;5.91;100.00;98542.72;5034165;28;20531;-52
2023/12/13 04:56:08;;;;;;;0.30;0.20;;;;;;;6.06;100.00;98544.78;5033930;28;20483;-52
2023/12/13 04:58:35;;;;;;;0.30;0.20;;;;;;;5.81;100.00;98542.19;5021816;28;20814;-52
2023/12/13 05:01:02;;;;;;;0.30;0.20;;;;;;;5.63;100.00;98533.19;5033266;28;20467;-52
2023/12/13 05:03:29;;;;;;;0.30;0.20;;;;;;;5.78;100.00;98534.38;5033976;28;20458;-52
2023/12/13 05:05:56;;;;;;;0.30;0.20;;;;;;;5.78;100.00;98541.44;5033894;28;20483;-52
2023/12/13 05:08:22;;;;;;;0.30;0.30;;;;;;;5.89;100.00;98544.50;5033045;28;20833;-52
2023/12/13 05:10:48;;;;;;;0.30;0.20;;;;;;;5.84;100.00;98539.41;5014022;28;20591;-52
2023/12/13 05:13:15;;;;;;;0.30;0.10;;;;;;;5.76;100.00;98538.00;5027235;28;20502;-52
2023/12/13 05:15:42;;;;;;;0.30;0.20;;;;;;;5.75;100.00;98546.81;5033942;28;20444;-52
2023/12/13 05:18:09;;;;;;;0.30;0.20;;;;;;;5.59;100.00;98546.50;5033002;28;21031;-52
2023/12/13 05:20:36;;;;;;;0.30;0.20;;;;;;;5.67;100.00;98541.84;5021019;28;20479;-51
2023/12/13 05:23:03;;;;;;;0.30;0.10;;;;;;;5.69;100.00;98540.00;5034114;28;20547;-52
2023/12/13 05:25:30;;;;;;;0.30;0.20;;;;;;;5.72;100.00;98529.31;5033566;28;20999;-53
2023/12/13 05:27:57;;;;;;;0.30;0.20;;;;;;;5.74;100.00;98535.41;5032353;28;20450;-52
2023/12/13 05:30:23;;;;;;;0.30;0.20;;;;;;;5.65;100.00;98528.72;5015112;28;20477;-53
2023/12/13 05:32:53;;;;;;;0.30;0.20;;;;;;;5.59;100.00;98530.69;5028110;28;20864;-52
2023/12/13 05:35:20;;;;;;;0.30;0.20;;;;;;;5.65;100.00;98526.06;5033485;28;20440;-52
2023/12/13 05:37:46;;;;;;;0.30;0.20;;;;;;;5.65;100.00;98523.44;5022113;28;20894;-52
2023/12/13 05:40:17;;;;;;;0.30;0.20;;;;;;;5.58;100.00;98516.66;5033572;28;20448;-52
2023/12/13 05:42:44;;;;;;;0.30;0.20;;;;;;;5.60;100.00;98521.88;5048678;28;20455;-53
2023/12/13 05:45:11;;;;;;;0.30;0.10;;;;;;;5.50;100.00;98523.16;5033053;28;20530;-53
2023/12/13 05:47:37;;;;;;;0.30;0.10;;;;;;;5.29;100.00;98522.13;5033216;28;20494;-53
2023/12/13 05:50:05;;;;;;;0.30;0.20;;;;;;;5.17;100.00;98531.34;5032605;28;20447;-52
2023/12/13 05:52:36;;;;;;;0.30;0.17;;;;;;;5.37;100.00;98519.25;5032935;28;20455;-52
2023/12/13 05:55:03;;;;;;;0.30;0.20;;;;;;;5.38;100.00;98520.97;5032649;28;20494;-52
2023/12/13 05:57:30;;;;;;;0.30;0.10;;;;;;;5.62;100.00;98520.06;5032920;28;20447;-52
2023/12/13 05:59:56;;;;;;;0.30;0.20;;;;;;;5.57;100.00;98522.00;5020973;28;20456;-52
2023/12/13 06:02:24;;;;;;;0.30;0.20;;;;;;;5.63;100.00;98521.78;5030162;28;20554;-53
2023/12/13 06:04:52;;;;;;;0.30;0.20;;;;;;;5.68;100.00;98516.34;5032480;28;20984;-52
2023/12/13 06:07:19;;;;;;;0.30;0.20;;;;;;;5.73;100.00;98520.50;5032542;28;20896;-52
2023/12/13 06:09:46;;;;;;;0.30;0.20;;;;;;;5.85;100.00;98521.81;5021798;28;20519;-54
2023/12/13 06:12:13;;;;;;;0.30;0.20;;;;;;;5.84;100.00;98528.88;5032095;28;20554;-53
2023/12/13 06:14:39;;;;;;;0.30;0.20;;;;;;;5.86;100.00;98523.53;5030530;28;20510;-53
2023/12/13 06:17:10;;;;;;;0.30;0.20;;;;;;;5.97;100.00;98523.16;5030118;28;20462;-52
2023/12/13 06:19:36;;;;;;;0.30;0.20;;;;;;;5.96;100.00;98524.94;5031685;28;20539;-53
2023/12/13 06:22:03;;;;;;;0.30;0.20;;;;;;;5.98;100.00;98517.84;5029853;28;20518;-50
2023/12/13 06:24:29;;;;;;;0.30;0.20;;;;;;;6.04;100.00;98517.63;5011679;28;20453;-53
2023/12/13 06:26:57;;;;;;;0.30;0.20;;;;;;;6.03;100.00;98522.91;5025173;28;20492;-53
2023/12/13 06:29:23;;;;;;;0.30;0.20;;;;;;;6.06;100.00;98520.19;5030398;28;20549;-53
2023/12/13 06:31:50;;;;;;;0.30;0.10;;;;;;;5.99;100.00;98519.53;5022591;28;20977;-53
2023/12/13 06:34:17;;;;;;;0.30;0.10;;;;;;;5.93;100.00;98517.16;5029231;28;20945;-53
2023/12/13 06:36:43;;;;;;;0.30;0.20;;;;;;;5.94;100.00;98517.09;5030674;28;20456;-53
2023/12/13 06:39:11;;;;;;;0.30;0.20;;;;;;;5.97;100.00;98508.19;5031674;28;20903;-53
2023/12/13 06:41:39;;;;;;;0.30;0.20;;;;;;;5.98;100.00;98504.66;5024245;28;20476;-53
2023/12/13 06:44:07;;;;;;;0.30;0.10;;;;;;;6.12;100.00;98494.41;5024158;28;20554;-53
2023/12/13 06:46:33;;;;;;;0.30;0.20;;;;;;;6.14;100.00;98495.22;5030692;28;20574;-53
2023/12/13 06:49:00;;;;;;;0.30;0.20;;;;;;;6.12;100.00;98490.91;5030350;28;20459;-52
2023/12/13 06:51:27;;;;;;;0.30;0.20;;;;;;;6.18;100.00;98488.06;5025316;28;20496;-53
2023/12/13 06:53:54;;;;;;;0.30;0.20;;;;;;;6.14;100.00;98489.06;5026584;28;20458;-52
2023/12/13 06:56:25;;;;;;;0.30;0.20;;;;;;;6.10;100.00;98493.63;5032144;28;20443;-52
2023/12/13 06:58:51;;;;;;;0.30;0.20;;;;;;;6.39;100.00;98494.22;5029578;28;20539;-53
2023/12/13 07:01:18;;;;;;;0.30;0.10;;;;;;;6.35;100.00;98487.38;5027250;28;20476;-53
2023/12/13 07:03:44;;;;;;;0.30;0.20;;;;;;;6.43;100.00;98493.16;5031068;28;20856;-53
2023/12/13 07:06:11;;;;;;;0.30;0.20;;;;;;;6.58;100.00;98476.75;5029991;28;20488;-53
2023/12/13 07:08:37;;;;;;;0.30;0.20;;;;;;;6.32;100.00;98484.88;5029775;28;20455;-53
2023/12/13 07:11:04;;;;;;;0.30;0.20;;;;;;;6.27;100.00;98485.03;5012878;28;20481;-52
2023/12/13 07:13:30;;;;;;;0.30;0.20;;;;;;;6.41;100.00;98481.81;5017959;28;20453;-52
2023/12/13 07:15:57;;;;;;;0.30;0.20;;;;;;;6.73;100.00;98480.50;5031126;28;20443;-53
2023/12/13 07:18:25;;;;;;;0.30;0.20;;;;;;;6.91;100.00;98485.00;5018573;28;20460;-53
2023/12/13 07:20:52;;;;;;;0.30;0.20;;;;;;;6.75;100.00;98481.31;5031537;28;21028;-53
2023/12/13 07:23:19;;;;;;;0.30;0.20;;;;;;;6.93;100.00;98485.78;5031584;28;20451;-53
2023/12/13 07:25:45;;;;;;;0.30;0.20;;;;;;;7.13;100.00;98487.59;5031556;28;20490;-53
2023/12/13 07:28:13;;;;;;;0.30;0.20;;;;;;;6.96;100.00;98488.28;5027971;28;20543;-53
2023/12/13 07:30:41;;;;;;;0.30;0.20;;;;;;;6.98;100.00;98482.94;5035761;28;21041;-53
2023/12/13 07:33:17;;;;;;;0.30;0.20;;;;;;;7.21;100.00;98484.59;5031012;28;20455;-53
2023/12/13 07:35:47;;;;;;;0.77;0.77;;;;;;;7.22;100.00;98487.16;5031209;28;20451;-53
2023/12/13 07:38:16;;;;;;;0.30;0.20;;;;;;;7.28;100.00;98497.47;5017113;28;20463;-53
2023/12/13 07:40:44;;;;;;;0.30;0.20;;;;;;;7.26;100.00;98496.66;5028306;28;20481;-53
2023/12/13 07:43:11;;;;;;;0.30;0.20;;;;;;;7.34;100.00;98496.34;5025205;28;20466;-53
2023/12/13 07:45:38;;;;;;;0.30;0.20;;;;;;;7.40;100.00;98491.66;5029997;28;20490;-53
2023/12/13 07:48:05;;;;;;;0.30;0.20;;;;;;;7.39;100.00;98492.53;5030823;28;20538;-53
2023/12/13 07:50:51;;;;;;;0.30;0.20;;;;;;;7.24;100.00;98498.50;5021492;28;21000;-53
2023/12/13 07:53:18;;;;;;;0.30;0.20;;;;;;;7.21;100.00;98490.72;5020867;28;20868;-52
2023/12/13 07:55:44;;;;;;;0.30;0.20;;;;;;;7.28;100.00;98489.56;5017979;28;20454;-53
2023/12/13 07:58:11;;;;;;;0.30;0.20;;;;;;;7.15;100.00;98488.38;5022741;28;20502;-52
2023/12/13 08:00:37;;;;;;;0.30;0.20;;;;;;;7.12;100.00;98496.41;5026840;28;21049;-53
2023/12/13 08:03:04;;;;;;;0.30;0.20;;;;;;;7.07;100.00;98491.34;5022169;28;20782;-53
2023/12/13 08:05:30;;;;;;;0.30;0.20;;;;;;;7.15;100.00;98498.09;5026047;28;20503;-53
2023/12/13 08:07:57;;;;;;;0.30;0.20;;;;;;;7.18;100.00;98504.09;5020357;28;20457;-53
2023/12/13 08:10:23;;;;;;;0.30;0.20;;;;;;;7.10;100.00;98508.81;5027511;28;21059;-53
2023/12/13 08:12:50;;;;;;;0.30;0.20;;;;;;;7.12;100.00;98506.97;5032204;28;20509;-53
2023/12/13 08:15:17;;;;;;;0.30;0.20;;;;;;;7.15;100.00;98503.38;5021853;28;20820;-53
2023/12/13 08:17:44;;;;;;;0.30;0.20;;;;;;;7.13;100.00;98498.16;5034960;28;20456;-53
2023/12/13 08:20:11;;;;;;;0.30;0.20;;;;;;;7.13;100.00;98506.06;5021290;28;20469;-52
2023/12/13 08:22:38;;;;;;;0.30;0.30;;;;;;;7.17;100.00;98494.44;5034637;28;20447;-53
2023/12/13 08:25:05;;;;;;;0.30;0.20;;;;;;;7.19;100.00;98495.22;5034877;28;20459;-52
2023/12/13 08:27:31;;;;;;;0.30;0.20;;;;;;;7.16;100.00;98500.66;5034829;28;20820;-53
2023/12/13 08:29:58;;;;;;;0.30;0.20;;;;;;;7.24;100.00;98493.22;5030940;28;20554;-53
2023/12/13 08:32:24;;;;;;;0.30;0.20;;;;;;;7.11;100.00;98492.03;5014765;28;20476;-53
2023/12/13 08:34:51;;;;;;;0.30;0.20;;;;;;;7.15;100.00;98498.09;5031938;28;20529;-52
2023/12/13 08:37:19;;;;;;;0.30;0.20;;;;;;;7.19;100.00;98491.72;5034341;28;20454;-53
2023/12/13 08:39:48;;;;;;;0.30;0.20;;;;;;;7.34;100.00;98498.97;5034581;28;20538;-53
2023/12/13 08:42:14;;;;;;;0.30;0.20;;;;;;;7.40;100.00;98499.56;5034523;28;20476;-53
2023/12/13 08:44:41;;;;;;;0.30;0.20;;;;;;;7.50;100.00;98494.72;5034422;28;20488;-53
2023/12/13 08:47:08;;;;;;;0.30;0.20;;;;;;;7.47;100.00;98496.66;5034434;28;20578;-53
2023/12/13 08:49:34;;;;;;;0.30;0.20;;;;;;;7.50;100.00;98497.34;5034266;28;20872;-53
2023/12/13 08:52:01;;;;;;;0.30;0.20;;;;;;;7.62;100.00;98499.44;5033962;28;20510;-52
2023/12/13 08:54:27;;;;;;;0.30;0.20;;;;;;;7.70;100.00;98502.63;5033903;28;20452;-53
2023/12/13 08:56:54;;;;;;;0.30;0.20;;;;;;;7.77;100.00;98508.47;5024686;28;20444;-53
2023/12/13 08:59:20;;;;;;;0.30;0.20;;;;;;;7.88;100.00;98503.53;5020760;28;20542;-53
2023/12/13 09:01:49;;;;;;;0.30;0.20;;;;;;;7.99;100.00;98497.75;5034080;28;20478;-53
2023/12/13 09:04:15;;;;;;;0.30;0.20;;;;;;;8.17;100.00;98506.59;5033801;28;20458;-53
2023/12/13 09:06:43;;;;;;;0.30;0.20;;;;;;;8.28;100.00;98506.97;5034199;28;20574;-53
2023/12/13 09:09:11;;;;;;;0.30;0.20;;;;;;;8.26;100.00;98503.53;5014775;28;20491;-53
2023/12/13 09:11:37;;;;;;;0.30;0.20;;;;;;;8.38;100.00;98504.78;5014104;28;20472;-53
2023/12/13 09:14:04;;;;;;;0.30;0.20;;;;;;;8.25;100.00;98502.69;5027489;28;20563;-53
2023/12/13 09:16:30;;;;;;;0.30;0.20;;;;;;;8.24;100.00;98508.91;5014050;28;20864;-53
2023/12/13 09:18:57;;;;;;;1.03;1.03;;;;;;;8.25;100.00;98510.63;5033187;28;20501;-53
2023/12/13 09:21:24;;;;;;;0.30;0.20;;;;;;;8.24;100.00;98510.69;5034198;28;20475;-53
2023/12/13 09:23:50;;;;;;;0.30;0.20;;;;;;;8.30;100.00;98513.88;5033617;28;20505;-53
2023/12/13 09:26:17;;;;;;;0.30;0.20;;;;;;;8.43;100.00;98516.84;5032902;28;20519;-53
2023/12/13 09:28:44;;;;;;;0.30;0.20;;;;;;;8.30;100.00;98518.31;5030939;28;20555;-53
2023/12/13 09:31:12;;;;;;;0.30;0.20;;;;;;;8.33;100.00;98519.03;5020128;28;20476;-53
2023/12/13 09:33:39;;;;;;;0.30;0.20;;;;;;;8.45;100.00;98514.97;5032801;28;20459;-53
2023/12/13 09:36:07;;;;;;;0.30;0.20;;;;;;;8.48;100.00;98520.09;5032088;28;20538;-54
2023/12/13 09:38:33;;;;;;;0.30;0.20;;;;;;;8.58;100.00;98517.88;5031395;28;20957;-54
2023/12/13 09:41:00;;;;;;;0.30;0.20;;;;;;;8.78;100.00;98511.63;5020140;28;20542;-53
2023/12/13 09:43:26;;;;;;;0.30;0.20;;;;;;;8.74;100.00;98520.63;5033240;28;20530;-53
2023/12/13 09:45:54;;;;;;;0.30;0.20;;;;;;;8.63;100.00;98526.44;5048136;28;20465;-54
2023/12/13 09:48:22;;;;;;;0.30;0.20;;;;;;;8.80;100.00;98523.00;5023870;28;20459;-53
2023/12/13 09:50:57;;;;;;;0.30;0.20;;;;;;;8.87;100.00;98530.53;5048752;22;20539;-51
2023/12/13 09:53:25;;;;;;;0.30;0.20;;;;;;;8.86;100.00;98526.16;5071718;28;20476;-53
2023/12/13 09:55:52;;;;;;;0.30;0.20;;;;;;;8.99;100.00;98521.13;5072831;28;20454;-51
2023/12/13 09:58:18;;;;;;;0.30;0.20;;;;;;;9.07;100.00;98526.03;5072921;28;20450;-51
2023/12/13 10:00:45;;;;;;;0.30;0.20;;;;;;;9.20;100.00;98533.28;5069622;28;20919;-50
2023/12/13 10:03:11;;;;;;;0.30;0.20;;;;;;;9.39;100.00;98527.03;5043713;28;20526;-52
2023/12/13 10:05:41;;;;;;;0.30;0.20;;;;;;;9.30;100.00;98532.78;5048928;28;20797;-52
2023/12/13 10:08:11;;;;;;;0.30;0.20;;;;;;;9.24;100.00;98528.69;5041506;28;20479;-52
2023/12/13 10:10:38;;;;;;;0.30;0.20;;;;;;;9.44;100.00;98531.13;5045757;28;20452;-52
2023/12/13 10:13:06;;;;;;;0.30;0.20;;;;;;;9.60;100.00;98530.34;5044917;28;20454;-52
2023/12/13 10:15:33;;;;;;;0.30;0.20;;;;;;;9.70;100.00;98535.06;5054085;28;20450;-51
2023/12/13 10:18:01;;;;;;;0.30;0.20;;;;;;;9.79;100.00;98528.41;5052127;28;20454;-52
2023/12/13 10:20:30;;;;;;;0.30;0.20;;;;;;;9.77;100.00;98523.19;5051011;28;20501;-51
2023/12/13 10:22:56;;;;;;;0.30;0.20;;;;;;;9.80;100.00;98517.72;5052568;28;20545;-50
2023/12/13 10:25:23;;;;;;;0.30;0.20;;;;;;;10.01;100.00;98523.69;5052542;28;20493;-50
2023/12/13 10:27:53;;;;;;;0.30;0.20;;;;;;;10.08;100.00;98510.91;5052145;28;20486;-52
2023/12/13 10:30:19;;;;;;;0.30;0.20;;;;;;;10.23;100.00;98520.72;5051658;28;20450;-52
2023/12/13 10:32:46;;;;;;;0.30;0.20;;;;;;;10.46;100.00;98521.22;5052350;28;20462;-52
2023/12/13 10:35:13;;;;;;;0.30;0.20;;;;;;;10.32;100.00;98524.66;5052614;28;20455;-52
2023/12/13 10:37:41;;;;;;;0.30;0.20;;;;;;;10.37;100.00;98519.94;5050559;28;20435;-52
2023/12/13 10:40:12;;;;;;;0.30;0.20;;;;;;;10.64;100.00;98528.16;5039589;28;20451;-52
2023/12/13 10:42:43;;;;;;;0.30;0.20;;;;;;;10.84;100.00;98519.03;5051777;28;20472;-52
2023/12/13 10:45:11;;;;;;;0.30;0.20;;;;;;;10.21;100.00;98517.28;5052208;28;20538;-52
2023/12/13 10:47:43;;;;;;;0.30;0.20;;;;;;;10.09;100.00;98528.53;5051518;28;20491;-52
2023/12/13 10:50:11;;;;;;;0.30;0.20;;;;;;;10.41;100.00;98520.63;5042221;28;20451;-52
2023/12/13 10:52:41;;;;;;;0.30;0.20;;;;;;;10.64;100.00;98518.38;5039175;28;20483;-52
2023/12/13 10:55:08;;;;;;;0.30;0.20;;;;;;;10.52;100.00;98515.56;5052104;28;20447;-52
2023/12/13 10:57:38;;;;;;;0.30;0.20;;;;;;;10.63;100.00;98516.66;5047795;28;20984;-53
2023/12/13 11:00:06;;;;;;;0.30;0.20;;;;;;;10.96;100.00;98513.88;5038198;28;20457;-52
2023/12/13 11:02:44;;;;;;;0.30;0.20;;;;;;;10.87;100.00;98508.22;5051499;28;20462;-52
2023/12/13 11:05:12;;;;;;;0.30;0.20;;;;;;;10.98;100.00;98511.97;5051649;28;20457;-52
2023/12/13 11:07:44;;;;;;;0.30;0.20;;;;;;;11.12;100.00;98510.28;5051757;28;20482;-52
2023/12/13 11:10:13;;;;;;;0.30;0.20;;;;;;;11.15;100.00;98507.44;5049543;28;20457;-52
2023/12/13 11:12:49;;;;;;;0.30;0.20;;;;;;;11.24;100.00;98507.75;5040303;28;20474;-52
2023/12/13 11:15:18;;;;;;;0.30;0.20;;;;;;;11.31;100.00;98508.22;5051862;28;20504;-52
2023/12/13 11:17:48;;;;;;;0.30;0.20;;;;;;;11.44;100.00;98506.53;5045663;28;20437;-52
2023/12/13 11:20:15;;;;;;;0.30;0.20;;;;;;;11.36;100.00;98506.16;5050286;28;20433;-52
2023/12/13 11:22:45;;;;;;;0.30;0.20;;;;;;;11.36;100.00;98513.25;5051982;28;20577;-52
2023/12/13 11:25:12;;;;;;;0.30;0.20;;;;;;;11.49;100.00;98512.44;5045350;28;20456;-51
2023/12/13 11:27:53;;;;;;;0.30;0.20;;;;;;;11.49;100.00;98508.91;5041408;28;20493;-52
2023/12/13 11:30:21;;;;;;;0.30;0.20;;;;;;;11.66;99.85;98507.91;5037457;28;20457;-51
2023/12/13 11:32:48;;;;;;;0.30;0.20;;;;;;;11.46;100.00;98507.31;5051033;28;20528;-50